Time;durP1;ratioP1;P1;durP2;ratioP2;P2;SDS_P1;SDS_P2;PMS_P1;PMS_P2;Temp;Humidity;BMP_temperature;BMP_pressure;BME280_temperature;BME280_humidity;BME280_pressure;Samples;Min_cycle;Max_cycle;Signal;HPM_P1;HPM_P2
2021/11/29 00:01:12;;;;;;;3.85;1.40;;;;;;;;;;5018521;28;20045;-53
2021/11/29 00:03:38;;;;;;;3.90;1.50;;;;;;;;;;5022481;28;20132;-51
2021/11/29 00:06:04;;;;;;;4.70;1.55;;;;;;;;;;5026658;28;20040;-50
2021/11/29 00:08:32;;;;;;;7.28;2.15;;;;;;;;;;5041744;28;20045;-56
2021/11/29 00:11:00;;;;;;;6.00;1.75;;;;;;;;;;5033612;28;20057;-54
2021/11/29 00:13:27;;;;;;;4.60;1.60;;;;;;;;;;5022388;28;20148;-50
2021/11/29 00:15:54;;;;;;;1.77;0.85;;;;;;;;;;5023221;28;20342;-55
2021/11/29 00:18:23;;;;;;;2.30;0.57;;;;;;;;;;5042770;28;20051;-54
2021/11/29 00:20:50;;;;;;;2.78;0.80;;;;;;;;;;5040564;28;20037;-55
2021/11/29 00:23:16;;;;;;;2.25;0.73;;;;;;;;;;5045235;28;20038;-56
2021/11/29 00:25:43;;;;;;;3.10;0.98;;;;;;;;;;5042842;28;20045;-53
2021/11/29 00:28:11;;;;;;;4.80;1.25;;;;;;;;;;5038741;28;20697;-56
2021/11/29 00:30:38;;;;;;;6.25;0.73;;;;;;;;;;5041767;28;20475;-54
2021/11/29 00:33:05;;;;;;;4.18;1.52;;;;;;;;;;5034722;28;20050;-56
2021/11/29 00:35:32;;;;;;;3.03;1.17;;;;;;;;;;5022237;28;20052;-55
2021/11/29 00:37:59;;;;;;;3.03;0.90;;;;;;;;;;5019071;28;20341;-50
2021/11/29 00:40:26;;;;;;;1.33;0.80;;;;;;;;;;5021987;28;20066;-53
2021/11/29 00:42:52;;;;;;;3.30;0.85;;;;;;;;;;5029360;28;20375;-54
2021/11/29 00:45:20;;;;;;;3.72;0.95;;;;;;;;;;5040456;28;20526;-56
2021/11/29 00:47:47;;;;;;;2.87;0.90;;;;;;;;;;5029275;28;20069;-55
2021/11/29 00:50:14;;;;;;;2.33;0.70;;;;;;;;;;5021250;28;20291;-55
2021/11/29 00:52:41;;;;;;;1.40;0.65;;;;;;;;;;5025791;28;20045;-56
2021/11/29 00:55:08;;;;;;;1.50;0.68;;;;;;;;;;5041510;28;20037;-56
2021/11/29 00:57:34;;;;;;;3.60;0.70;;;;;;;;;;5036842;28;20138;-56
2021/11/29 01:00:00;;;;;;;1.20;0.65;;;;;;;;;;5041059;28;20041;-56
2021/11/29 01:02:28;;;;;;;1.27;0.68;;;;;;;;;;5036885;28;20037;-56
2021/11/29 01:04:55;;;;;;;4.87;1.13;;;;;;;;;;5039738;28;20357;-55
2021/11/29 01:07:24;;;;;;;1.83;0.70;;;;;;;;;;5042612;28;20037;-55
2021/11/29 01:09:50;;;;;;;3.13;0.77;;;;;;;;;;5019197;28;20086;-56
2021/11/29 01:12:17;;;;;;;0.93;0.50;;;;;;;;;;5027429;28;20053;-54
2021/11/29 01:14:44;;;;;;;3.33;0.65;;;;;;;;;;5034685;28;20056;-55
2021/11/29 01:17:11;;;;;;;0.80;0.45;;;;;;;;;;5042537;28;20179;-55
2021/11/29 01:19:39;;;;;;;4.18;0.80;;;;;;;;;;5037007;28;20089;-52
2021/11/29 01:22:06;;;;;;;1.27;0.60;;;;;;;;;;5039908;28;20041;-56
2021/11/29 01:24:33;;;;;;;2.03;0.50;;;;;;;;;;5040572;28;20087;-54
2021/11/29 01:27:00;;;;;;;1.27;0.60;;;;;;;;;;5041384;28;20119;-55
2021/11/29 01:29:27;;;;;;;2.80;0.60;;;;;;;;;;5036551;28;20045;-56
2021/11/29 01:31:53;;;;;;;0.70;0.50;;;;;;;;;;5042519;28;20068;-51
2021/11/29 01:34:20;;;;;;;2.20;0.57;;;;;;;;;;5024409;28;20135;-56
2021/11/29 01:36:49;;;;;;;1.70;0.80;;;;;;;;;;5022432;28;20030;-55
2021/11/29 01:39:15;;;;;;;3.72;0.60;;;;;;;;;;5023091;28;20037;-56
2021/11/29 01:41:43;;;;;;;3.20;0.57;;;;;;;;;;5045625;28;20037;-57
2021/11/29 01:44:09;;;;;;;2.38;0.80;;;;;;;;;;5038410;28;20041;-51
2021/11/29 01:46:36;;;;;;;3.08;0.75;;;;;;;;;;5039922;28;20060;-54
2021/11/29 01:49:03;;;;;;;5.47;1.00;;;;;;;;;;5040198;28;20037;-54
2021/11/29 01:51:30;;;;;;;4.65;0.90;;;;;;;;;;5033954;28;20442;-55
2021/11/29 01:53:58;;;;;;;2.15;0.70;;;;;;;;;;5039155;28;20046;-56
2021/11/29 01:56:24;;;;;;;1.50;0.80;;;;;;;;;;5019237;28;20467;-56
2021/11/29 01:58:51;;;;;;;4.28;0.52;;;;;;;;;;5020832;28;20050;-56
2021/11/29 02:01:18;;;;;;;2.15;0.40;;;;;;;;;;5028754;28;20123;-54
2021/11/29 02:03:46;;;;;;;1.35;0.47;;;;;;;;;;5039029;28;20128;-57
2021/11/29 02:06:13;;;;;;;3.38;0.70;;;;;;;;;;5024948;28;20038;-54
2021/11/29 02:08:42;;;;;;;3.45;0.40;;;;;;;;;;5022049;28;20042;-55
2021/11/29 02:11:10;;;;;;;0.82;0.50;;;;;;;;;;5015868;28;20244;-56
2021/11/29 02:13:37;;;;;;;3.08;0.85;;;;;;;;;;5039260;28;20037;-54
2021/11/29 02:16:04;;;;;;;0.63;0.30;;;;;;;;;;5038385;28;20049;-51
2021/11/29 02:18:33;;;;;;;1.25;0.28;;;;;;;;;;5040346;28;20053;-54
2021/11/29 02:21:02;;;;;;;1.13;0.60;;;;;;;;;;5035881;28;20053;-54
2021/11/29 02:23:29;;;;;;;2.47;0.70;;;;;;;;;;5039195;28;20466;-53
2021/11/29 02:25:56;;;;;;;1.52;0.60;;;;;;;;;;5037234;28;20061;-51
2021/11/29 02:28:24;;;;;;;2.55;0.32;;;;;;;;;;5040273;28;20583;-55
2021/11/29 02:30:51;;;;;;;1.90;0.47;;;;;;;;;;5038683;28;20069;-56
2021/11/29 02:33:17;;;;;;;0.68;0.32;;;;;;;;;;5026288;28;20077;-52
2021/11/29 02:35:44;;;;;;;2.25;0.30;;;;;;;;;;5039111;28;20029;-55
2021/11/29 02:38:12;;;;;;;2.58;0.25;;;;;;;;;;5019763;28;20041;-56
2021/11/29 02:40:38;;;;;;;0.97;0.40;;;;;;;;;;5021699;28;20495;-55
2021/11/29 02:43:05;;;;;;;0.30;0.30;;;;;;;;;;5032321;28;20344;-55
2021/11/29 02:45:32;;;;;;;0.35;0.20;;;;;;;;;;5039926;28;20052;-54
2021/11/29 02:47:58;;;;;;;0.90;0.20;;;;;;;;;;5023165;28;20475;-56
2021/11/29 02:50:25;;;;;;;0.52;0.25;;;;;;;;;;5020106;28;20123;-56
2021/11/29 02:52:51;;;;;;;0.95;0.38;;;;;;;;;;5019021;28;20049;-56
2021/11/29 02:55:19;;;;;;;4.68;0.30;;;;;;;;;;5021088;28;20034;-55
2021/11/29 02:57:46;;;;;;;0.60;0.20;;;;;;;;;;5026014;28;20030;-54
2021/11/29 03:00:13;;;;;;;0.60;0.40;;;;;;;;;;5040373;28;20049;-57
2021/11/29 03:02:40;;;;;;;2.50;0.30;;;;;;;;;;5031381;28;20056;-55
2021/11/29 03:05:06;;;;;;;0.52;0.30;;;;;;;;;;5020166;28;20075;-56
2021/11/29 03:07:35;;;;;;;0.52;0.30;;;;;;;;;;5019682;28;20029;-56
2021/11/29 03:10:01;;;;;;;2.08;0.30;;;;;;;;;;5040965;28;20287;-49
2021/11/29 03:12:30;;;;;;;0.75;0.38;;;;;;;;;;5032312;28;20038;-55
2021/11/29 03:14:57;;;;;;;0.28;0.28;;;;;;;;;;5026121;28;20037;-53
2021/11/29 03:17:24;;;;;;;0.38;0.38;;;;;;;;;;5042607;28;20029;-51
2021/11/29 03:19:50;;;;;;;0.30;0.30;;;;;;;;;;5041658;28;20048;-52
2021/11/29 03:22:17;;;;;;;2.17;0.40;;;;;;;;;;5042933;28;20041;-54
2021/11/29 03:24:46;;;;;;;1.05;0.45;;;;;;;;;;5021994;28;20130;-55
2021/11/29 03:27:15;;;;;;;0.22;0.22;;;;;;;;;;5022281;28;20116;-51
2021/11/29 03:29:43;;;;;;;;;;;;;;;;;;5034520;28;20029;-56
2021/11/29 03:32:11;;;;;;;0.43;0.22;;;;;;;;;;5040582;28;19929;-49
2021/11/29 03:34:38;;;;;;;1.40;0.50;;;;;;;;;;5035083;28;20041;-51
2021/11/29 03:37:05;;;;;;;1.05;0.43;;;;;;;;;;5040238;28;20099;-53
2021/11/29 03:39:31;;;;;;;0.52;0.45;;;;;;;;;;5029885;28;20033;-54
2021/11/29 03:41:59;;;;;;;5.38;0.60;;;;;;;;;;5021634;28;20115;-50
2021/11/29 03:44:26;;;;;;;1.30;0.50;;;;;;;;;;5033908;28;20091;-51
2021/11/29 03:46:53;;;;;;;0.43;0.28;;;;;;;;;;5062108;28;20029;-55
2021/11/29 03:49:22;;;;;;;2.25;0.50;;;;;;;;;;5054726;28;20142;-56
2021/11/29 03:51:48;;;;;;;3.58;0.50;;;;;;;;;;5042929;28;20047;-56
2021/11/29 03:54:15;;;;;;;1.10;0.43;;;;;;;;;;5038427;28;20102;-56
2021/11/29 03:56:42;;;;;;;0.43;0.40;;;;;;;;;;5041786;28;20064;-57
2021/11/29 03:59:09;;;;;;;1.38;0.70;;;;;;;;;;5041858;28;20051;-56
2021/11/29 04:01:36;;;;;;;0.45;0.30;;;;;;;;;;5018805;28;20352;-54
2021/11/29 04:04:03;;;;;;;2.10;0.47;;;;;;;;;;5021825;28;20546;-57
2021/11/29 04:06:31;;;;;;;1.48;0.70;;;;;;;;;;5018617;28;20026;-56
2021/11/29 04:08:58;;;;;;;1.27;0.45;;;;;;;;;;5021411;28;20483;-56
2021/11/29 04:11:24;;;;;;;2.70;0.60;;;;;;;;;;5018869;28;20050;-56
2021/11/29 04:13:51;;;;;;;2.55;0.60;;;;;;;;;;5042760;28;20068;-56
2021/11/29 04:16:17;;;;;;;1.48;0.50;;;;;;;;;;5028414;28;20044;-57
2021/11/29 04:18:44;;;;;;;1.30;0.75;;;;;;;;;;5023868;28;20506;-56
2021/11/29 04:21:12;;;;;;;3.15;0.60;;;;;;;;;;5033500;28;20061;-57
2021/11/29 04:23:42;;;;;;;1.25;0.55;;;;;;;;;;5043685;28;20044;-56
2021/11/29 04:26:11;;;;;;;1.23;0.52;;;;;;;;;;5030817;28;20479;-54
2021/11/29 04:28:37;;;;;;;3.90;0.60;;;;;;;;;;5018657;28;20034;-54
2021/11/29 04:31:04;;;;;;;0.60;0.35;;;;;;;;;;5024199;28;20045;-51
2021/11/29 04:33:30;;;;;;;4.85;0.60;;;;;;;;;;5040134;28;20108;-54
2021/11/29 04:35:57;;;;;;;0.40;0.40;;;;;;;;;;5036713;28;20112;-54
2021/11/29 04:38:24;;;;;;;0.35;0.32;;;;;;;;;;5041691;28;20118;-53
2021/11/29 04:40:54;;;;;;;2.33;0.50;;;;;;;;;;5037838;28;20060;-49
2021/11/29 04:43:20;;;;;;;3.88;0.60;;;;;;;;;;5019368;28;20138;-55
2021/11/29 04:45:48;;;;;;;0.30;0.30;;;;;;;;;;5012938;28;20034;-57
2021/11/29 04:48:15;;;;;;;0.57;0.37;;;;;;;;;;5031127;28;20045;-56
2021/11/29 04:50:41;;;;;;;0.40;0.40;;;;;;;;;;5021839;28;20271;-57
2021/11/29 04:53:08;;;;;;;0.82;0.47;;;;;;;;;;5026918;28;20049;-53
2021/11/29 04:55:34;;;;;;;4.70;0.40;;;;;;;;;;5040165;28;20045;-55
2021/11/29 04:58:02;;;;;;;1.35;0.30;;;;;;;;;;5037363;28;20061;-57
2021/11/29 05:00:29;;;;;;;0.32;0.30;;;;;;;;;;5038864;28;20124;-56
2021/11/29 05:02:55;;;;;;;3.78;0.40;;;;;;;;;;5027791;28;20037;-54
2021/11/29 05:05:22;;;;;;;2.45;0.45;;;;;;;;;;5021300;28;20057;-53
2021/11/29 05:07:48;;;;;;;0.88;0.40;;;;;;;;;;5024594;28;20041;-54
2021/11/29 05:10:15;;;;;;;0.60;0.50;;;;;;;;;;5042158;28;20048;-56
2021/11/29 05:12:41;;;;;;;1.27;0.60;;;;;;;;;;5029208;28;20131;-54
2021/11/29 05:15:10;;;;;;;0.57;0.50;;;;;;;;;;5057080;28;20045;-56
2021/11/29 05:17:38;;;;;;;;;;;;;;;;;;5036823;28;20239;-52
2021/11/29 05:20:06;;;;;;;2.05;0.63;;;;;;;;;;5019934;28;19929;-54
2021/11/29 05:22:32;;;;;;;7.15;0.55;;;;;;;;;;5021016;28;20499;-55
2021/11/29 05:24:59;;;;;;;1.38;0.60;;;;;;;;;;5041035;28;20045;-55
2021/11/29 05:27:25;;;;;;;0.70;0.50;;;;;;;;;;5041701;28;20267;-53
2021/11/29 05:29:52;;;;;;;2.03;0.40;;;;;;;;;;5021186;28;20089;-56
2021/11/29 05:32:20;;;;;;;2.80;0.70;;;;;;;;;;5019893;28;20504;-54
2021/11/29 05:34:46;;;;;;;4.63;0.60;;;;;;;;;;5017313;28;20099;-55
2021/11/29 05:37:13;;;;;;;2.50;0.70;;;;;;;;;;5022113;28;20038;-56
2021/11/29 05:39:39;;;;;;;2.17;0.85;;;;;;;;;;5033388;28;20060;-56
2021/11/29 05:42:06;;;;;;;2.80;0.90;;;;;;;;;;5044336;28;20053;-57
2021/11/29 05:44:32;;;;;;;2.35;0.90;;;;;;;;;;5035160;28;20045;-55
2021/11/29 05:46:59;;;;;;;4.90;0.63;;;;;;;;;;5041172;28;20605;-56
2021/11/29 05:49:27;;;;;;;1.92;0.63;;;;;;;;;;5034986;28;20134;-56
2021/11/29 05:51:55;;;;;;;1.98;0.73;;;;;;;;;;5039823;28;20072;-54
2021/11/29 05:54:22;;;;;;;9.10;2.43;;;;;;;;;;5031566;28;20097;-56
2021/11/29 05:56:48;;;;;;;6.05;2.20;;;;;;;;;;5019685;28;20391;-53
2021/11/29 05:59:15;;;;;;;4.05;1.08;;;;;;;;;;5020640;28;20486;-57
2021/11/29 06:01:41;;;;;;;1.33;0.65;;;;;;;;;;5040040;28;20064;-53
2021/11/29 06:04:08;;;;;;;1.92;0.77;;;;;;;;;;5036918;28;20052;-58
2021/11/29 06:06:36;;;;;;;3.80;0.90;;;;;;;;;;5038878;28;20106;-56
2021/11/29 06:09:02;;;;;;;6.85;1.10;;;;;;;;;;5029399;28;20133;-54
2021/11/29 06:11:29;;;;;;;1.27;0.70;;;;;;;;;;5031478;28;20634;-56
2021/11/29 06:13:55;;;;;;;5.60;0.85;;;;;;;;;;5031377;28;20050;-55
2021/11/29 06:16:22;;;;;;;3.55;1.00;;;;;;;;;;5024841;28;20330;-55
2021/11/29 06:18:48;;;;;;;2.67;0.95;;;;;;;;;;5038126;28;20048;-52
2021/11/29 06:21:15;;;;;;;3.58;0.88;;;;;;;;;;5025743;28;20089;-55
2021/11/29 06:23:43;;;;;;;0.95;0.63;;;;;;;;;;5030211;28;20045;-56
2021/11/29 06:26:09;;;;;;;10.52;2.58;;;;;;;;;;5025830;28;20053;-53
2021/11/29 06:28:37;;;;;;;15.00;4.38;;;;;;;;;;5033042;28;20048;-57
2021/11/29 06:31:04;;;;;;;8.23;1.48;;;;;;;;;;5027794;28;20119;-55
2021/11/29 06:33:30;;;;;;;3.30;1.23;;;;;;;;;;5028296;28;20495;-52
2021/11/29 06:35:57;;;;;;;3.28;0.77;;;;;;;;;;5027360;28;20527;-53
2021/11/29 06:38:25;;;;;;;7.20;1.10;;;;;;;;;;5030797;28;20045;-56
2021/11/29 06:40:53;;;;;;;4.47;1.03;;;;;;;;;;5027600;28;20057;-50
2021/11/29 06:43:22;;;;;;;5.03;1.00;;;;;;;;;;5031456;28;20077;-55
2021/11/29 06:45:49;;;;;;;3.35;1.02;;;;;;;;;;5025610;28;20045;-53
2021/11/29 06:48:17;;;;;;;6.32;2.25;;;;;;;;;;5031931;28;20041;-51
2021/11/29 06:50:43;;;;;;;10.75;4.03;;;;;;;;;;5031461;28;20073;-53
2021/11/29 06:53:10;;;;;;;4.80;1.95;;;;;;;;;;5028959;28;20065;-56
2021/11/29 06:55:37;;;;;;;4.05;1.30;;;;;;;;;;5036569;28;20441;-56
2021/11/29 06:58:05;;;;;;;4.97;1.10;;;;;;;;;;5052920;28;20353;-57
2021/11/29 07:00:32;;;;;;;6.40;1.25;;;;;;;;;;5062243;28;20106;-57
2021/11/29 07:02:59;;;;;;;4.68;1.35;;;;;;;;;;5028028;28;20029;-54
2021/11/29 07:05:27;;;;;;;5.05;1.40;;;;;;;;;;5020310;28;20069;-55
2021/11/29 07:07:58;;;;;;;2.33;0.90;;;;;;;;;;5027390;28;20033;-50
2021/11/29 07:10:25;;;;;;;2.05;0.90;;;;;;;;;;5040240;28;20042;-55
2021/11/29 07:12:52;;;;;;;5.25;1.10;;;;;;;;;;5026579;28;20042;-54
2021/11/29 07:15:21;;;;;;;3.15;1.10;;;;;;;;;;5018057;28;20042;-56
2021/11/29 07:17:47;;;;;;;2.22;1.00;;;;;;;;;;5014658;28;20052;-53
2021/11/29 07:20:14;;;;;;;6.25;1.15;;;;;;;;;;5018127;28;20038;-55
2021/11/29 07:22:41;;;;;;;2.67;1.05;;;;;;;;;;5014646;28;20054;-53
2021/11/29 07:25:07;;;;;;;3.72;1.27;;;;;;;;;;5017954;28;20354;-55
2021/11/29 07:27:34;;;;;;;2.67;1.20;;;;;;;;;;5016901;28;20491;-56
2021/11/29 07:30:02;;;;;;;4.47;1.13;;;;;;;;;;5038030;28;20041;-51
2021/11/29 07:32:30;;;;;;;5.13;1.35;;;;;;;;;;5037766;28;20053;-56
2021/11/29 07:34:56;;;;;;;2.05;1.00;;;;;;;;;;5017161;28;20030;-56
2021/11/29 07:37:24;;;;;;;5.78;0.85;;;;;;;;;;5019493;28;20049;-53
2021/11/29 07:39:52;;;;;;;3.72;1.20;;;;;;;;;;5030754;28;20264;-55
2021/11/29 07:42:19;;;;;;;2.65;0.93;;;;;;;;;;5039337;28;20037;-54
2021/11/29 07:44:46;;;;;;;5.95;1.27;;;;;;;;;;5020115;28;20060;-49
2021/11/29 07:47:12;;;;;;;2.10;0.82;;;;;;;;;;5019597;28;20037;-54
2021/11/29 07:49:41;;;;;;;4.25;1.00;;;;;;;;;;5015370;28;20352;-56
2021/11/29 07:52:09;;;;;;;3.42;0.95;;;;;;;;;;5018137;28;20065;-52
2021/11/29 07:54:35;;;;;;;3.13;0.88;;;;;;;;;;5015890;28;20195;-55
2021/11/29 07:57:02;;;;;;;2.80;0.90;;;;;;;;;;5022823;28;20467;-53
2021/11/29 07:59:28;;;;;;;3.25;1.17;;;;;;;;;;5019845;28;20049;-55
2021/11/29 08:01:55;;;;;;;2.72;0.93;;;;;;;;;;5022199;28;20361;-53
2021/11/29 08:04:21;;;;;;;8.25;1.00;;;;;;;;;;5017988;28;20025;-53
2021/11/29 08:06:50;;;;;;;1.48;0.70;;;;;;;;;;5022856;28;20142;-52
2021/11/29 08:09:16;;;;;;;2.17;0.80;;;;;;;;;;5021249;28;20041;-55
2021/11/29 08:11:42;;;;;;;1.35;0.57;;;;;;;;;;5042588;28;20041;-57
2021/11/29 08:14:09;;;;;;;3.40;0.50;;;;;;;;;;5021952;28;20041;-56
2021/11/29 08:16:36;;;;;;;2.08;0.70;;;;;;;;;;5042288;28;20044;-56
2021/11/29 08:19:02;;;;;;;5.82;0.75;;;;;;;;;;5045163;28;20037;-56
2021/11/29 08:21:29;;;;;;;6.70;0.60;;;;;;;;;;5041043;28;20052;-54
2021/11/29 08:23:57;;;;;;;2.97;0.50;;;;;;;;;;5040882;28;20053;-50
2021/11/29 08:26:23;;;;;;;5.20;0.80;;;;;;;;;;5023229;28;20460;-52
2021/11/29 08:28:50;;;;;;;2.55;0.60;;;;;;;;;;5021319;28;20037;-49
2021/11/29 08:31:16;;;;;;;1.10;0.43;;;;;;;;;;5018750;28;20053;-51
2021/11/29 08:33:43;;;;;;;1.02;0.30;;;;;;;;;;5029167;28;20538;-49
2021/11/29 08:36:09;;;;;;;3.38;0.63;;;;;;;;;;5026923;28;20057;-54
2021/11/29 08:38:36;;;;;;;1.63;0.40;;;;;;;;;;5021214;28;20135;-57
2021/11/29 08:41:04;;;;;;;2.55;0.65;;;;;;;;;;5024902;28;20041;-52
2021/11/29 08:43:31;;;;;;;2.83;0.73;;;;;;;;;;5041623;28;20041;-52
2021/11/29 08:45:58;;;;;;;2.30;0.63;;;;;;;;;;5031898;28;20056;-54
2021/11/29 08:48:25;;;;;;;5.75;0.73;;;;;;;;;;5034179;28;20045;-56
2021/11/29 08:50:53;;;;;;;5.97;0.50;;;;;;;;;;5040068;28;20097;-53
2021/11/29 08:53:21;;;;;;;2.47;0.60;;;;;;;;;;5060856;28;20068;-51
2021/11/29 08:55:48;;;;;;;2.45;0.60;;;;;;;;;;5057490;28;20122;-54
2021/11/29 08:58:17;;;;;;;2.20;0.52;;;;;;;;;;5041704;28;20061;-56
2021/11/29 09:00:45;;;;;;;4.68;0.55;;;;;;;;;;5039808;28;20041;-54
2021/11/29 09:03:12;;;;;;;2.60;0.65;;;;;;;;;;5019540;28;20571;-55
2021/11/29 09:05:40;;;;;;;1.25;0.50;;;;;;;;;;5031900;28;20077;-52
2021/11/29 09:08:07;;;;;;;1.55;0.60;;;;;;;;;;5050631;28;20044;-56
2021/11/29 09:10:34;;;;;;;1.05;0.50;;;;;;;;;;5060819;28;20122;-51
2021/11/29 09:13:00;;;;;;;1.23;0.57;;;;;;;;;;5040903;28;20126;-51
2021/11/29 09:15:28;;;;;;;1.05;0.40;;;;;;;;;;5040539;28;20049;-51
2021/11/29 09:17:55;;;;;;;0.73;0.40;;;;;;;;;;5026057;28;20042;-50
2021/11/29 09:20:28;;;;;;;0.82;0.45;;;;;;;;;;5020611;28;20681;-52
2021/11/29 09:22:55;;;;;;;2.20;0.35;;;;;;;;;;5018442;28;20043;-50
2021/11/29 09:25:21;;;;;;;1.00;0.45;;;;;;;;;;5022379;28;20115;-51
2021/11/29 09:27:48;;;;;;;0.95;0.40;;;;;;;;;;5025934;28;20163;-53
2021/11/29 09:30:15;;;;;;;1.65;0.68;;;;;;;;;;5042503;28;20135;-52
2021/11/29 09:32:46;;;;;;;1.05;0.30;;;;;;;;;;5037467;28;20049;-48
2021/11/29 09:35:14;;;;;;;1.83;0.50;;;;;;;;;;5023508;28;20053;-56
2021/11/29 09:37:42;;;;;;;0.93;0.57;;;;;;;;;;5024141;28;20058;-56
2021/11/29 09:40:10;;;;;;;2.05;0.90;;;;;;;;;;5041560;28;20037;-51
2021/11/29 09:42:38;;;;;;;1.67;0.50;;;;;;;;;;5037534;28;20045;-53
2021/11/29 09:45:05;;;;;;;1.50;0.80;;;;;;;;;;5020372;28;20057;-53
2021/11/29 09:47:31;;;;;;;1.08;0.60;;;;;;;;;;5021015;28;20050;-52
2021/11/29 09:49:59;;;;;;;2.72;0.60;;;;;;;;;;5017459;28;20467;-53
2021/11/29 09:52:26;;;;;;;4.13;0.87;;;;;;;;;;5021974;28;20046;-53
2021/11/29 09:54:52;;;;;;;1.30;0.38;;;;;;;;;;5030944;28;20515;-55
2021/11/29 09:57:20;;;;;;;1.95;0.57;;;;;;;;;;5039421;28;20045;-52
2021/11/29 09:59:47;;;;;;;1.88;0.40;;;;;;;;;;5034667;28;20053;-56
2021/11/29 10:02:15;;;;;;;1.38;0.47;;;;;;;;;;5040166;28;20048;-52
2021/11/29 10:04:42;;;;;;;1.38;0.43;;;;;;;;;;5024681;28;20030;-57
2021/11/29 10:07:10;;;;;;;0.50;0.30;;;;;;;;;;5018991;28;20065;-52
2021/11/29 10:09:38;;;;;;;1.17;0.55;;;;;;;;;;5025333;28;20049;-53
2021/11/29 10:12:19;;;;;;;1.70;0.45;;;;;;;;;;5040294;28;20045;-56
2021/11/29 10:14:46;;;;;;;3.05;0.50;;;;;;;;;;5045373;28;20126;-53
2021/11/29 10:17:12;;;;;;;0.30;0.30;;;;;;;;;;5060597;28;20052;-53
2021/11/29 10:19:39;;;;;;;0.93;0.57;;;;;;;;;;5044816;28;20476;-51
2021/11/29 10:22:15;;;;;;;2.60;0.60;;;;;;;;;;5020418;28;20045;-53
2021/11/29 10:24:41;;;;;;;0.85;0.50;;;;;;;;;;5019418;28;20029;-54
2021/11/29 10:27:08;;;;;;;1.27;0.40;;;;;;;;;;5040998;28;20049;-54
2021/11/29 10:29:34;;;;;;;0.95;0.52;;;;;;;;;;5036993;28;20041;-54
2021/11/29 10:32:00;;;;;;;1.85;0.38;;;;;;;;;;5022852;28;20722;-52
2021/11/29 10:34:29;;;;;;;2.58;0.63;;;;;;;;;;5019885;28;20057;-54
2021/11/29 10:36:57;;;;;;;2.58;0.50;;;;;;;;;;5016038;28;20058;-55
2021/11/29 10:39:26;;;;;;;1.23;1.02;;;;;;;;;;5017184;28;20052;-53
2021/11/29 10:41:57;;;;;;;0.65;0.32;;;;;;;;;;5027181;28;20123;-55
2021/11/29 10:44:25;;;;;;;1.35;0.63;;;;;;;;;;5020664;28;20057;-56
2021/11/29 10:46:53;;;;;;;1.45;0.40;;;;;;;;;;5017385;28;20038;-53
2021/11/29 10:49:21;;;;;;;6.43;0.60;;;;;;;;;;5019866;28;20053;-53
2021/11/29 10:51:49;;;;;;;2.00;0.20;;;;;;;;;;5017505;28;20038;-57
2021/11/29 10:54:17;;;;;;;3.47;0.80;;;;;;;;;;5022173;28;20127;-55
2021/11/29 10:56:45;;;;;;;1.85;0.73;;;;;;;;;;5020689;28;20057;-56
2021/11/29 10:59:13;;;;;;;0.38;0.38;;;;;;;;;;5020116;28;20146;-52
2021/11/29 11:01:41;;;;;;;1.52;0.63;;;;;;;;;;5020636;28;20131;-48
2021/11/29 11:04:09;;;;;;;0.93;0.40;;;;;;;;;;5019561;28;20139;-52
2021/11/29 11:06:36;;;;;;;0.35;0.35;;;;;;;;;;5015530;28;20048;-54
2021/11/29 11:09:10;;;;;;;0.50;0.47;;;;;;;;;;5018908;28;20044;-53
2021/11/29 11:11:39;;;;;;;2.75;0.50;;;;;;;;;;5017224;28;20069;-51
2021/11/29 11:14:08;;;;;;;1.55;0.45;;;;;;;;;;5040993;28;20075;-53
2021/11/29 11:16:41;;;;;;;2.47;0.50;;;;;;;;;;5035660;28;20061;-52
2021/11/29 11:19:10;;;;;;;1.40;0.45;;;;;;;;;;5039333;28;20107;-52
2021/11/29 11:21:36;;;;;;;1.85;0.70;;;;;;;;;;5035889;28;20045;-52
2021/11/29 11:24:17;;;;;;;0.75;0.50;;;;;;;;;;5039634;28;20089;-53
2021/11/29 11:26:46;;;;;;;3.33;0.52;;;;;;;;;;5035189;28;20041;-53
2021/11/29 11:29:14;;;;;;;1.25;0.63;;;;;;;;;;5037735;28;20053;-53
2021/11/29 11:31:40;;;;;;;0.90;0.52;;;;;;;;;;5040512;28;20141;-53
2021/11/29 11:34:08;;;;;;;4.97;0.40;;;;;;;;;;5036044;28;20424;-55
2021/11/29 11:36:35;;;;;;;0.75;0.50;;;;;;;;;;5040882;28;20041;-55
2021/11/29 11:39:05;;;;;;;1.30;0.52;;;;;;;;;;5020459;28;20056;-53
2021/11/29 11:41:32;;;;;;;2.00;0.60;;;;;;;;;;5022307;28;20561;-52
2021/11/29 11:43:58;;;;;;;2.38;0.45;;;;;;;;;;5032772;28;20053;-52
2021/11/29 11:46:28;;;;;;;3.67;0.73;;;;;;;;;;5042351;28;20046;-52
2021/11/29 11:48:59;;;;;;;1.30;0.60;;;;;;;;;;5026389;28;20069;-53
2021/11/29 11:51:26;;;;;;;0.60;0.40;;;;;;;;;;5021191;28;20060;-54
2021/11/29 11:53:53;;;;;;;0.70;0.43;;;;;;;;;;5019412;28;20056;-53
2021/11/29 11:56:19;;;;;;;3.35;0.40;;;;;;;;;;5024034;28;20037;-52
2021/11/29 11:58:49;;;;;;;1.83;0.60;;;;;;;;;;5029451;28;20041;-56
2021/11/29 12:01:16;;;;;;;2.53;0.60;;;;;;;;;;5024094;28;20037;-56
2021/11/29 12:03:47;;;;;;;4.43;0.90;;;;;;;;;;5019151;28;20053;-55
2021/11/29 12:06:16;;;;;;;1.98;0.75;;;;;;;;;;5022452;28;20026;-55
2021/11/29 12:08:46;;;;;;;2.05;0.75;;;;;;;;;;5021823;28;20037;-57
2021/11/29 12:11:32;;;;;;;2.25;0.73;;;;;;;;;;5042060;28;20045;-57
2021/11/29 12:14:04;;;;;;;1.40;0.80;;;;;;;;;;5025629;28;20117;-54
2021/11/29 12:16:32;;;;;;;1.95;0.70;;;;;;;;;;5045102;28;20049;-56
2021/11/29 12:19:00;;;;;;;1.40;0.60;;;;;;;;;;5039285;28;20057;-55
2021/11/29 12:21:27;;;;;;;1.38;0.60;;;;;;;;;;5041924;28;20448;-50
2021/11/29 12:23:57;;;;;;;2.72;0.90;;;;;;;;;;5041200;28;20069;-49
2021/11/29 12:26:42;;;;;;;3.97;0.82;;;;;;;;;;5022210;28;20037;-52
2021/11/29 12:29:29;;;;;;;2.30;0.82;;;;;;;;;;5020595;28;20038;-57
2021/11/29 12:32:10;;;;;;;1.90;1.00;;;;;;;;;;5042222;28;20044;-52
2021/11/29 12:34:56;;;;;;;3.80;0.98;;;;;;;;;;5023511;28;20560;-55
2021/11/29 12:37:24;;;;;;;5.57;2.05;;;;;;;;;;5039828;28;20073;-52
2021/11/29 12:39:54;;;;;;;3.47;1.30;;;;;;;;;;5038874;28;20106;-53
2021/11/29 12:42:39;;;;;;;2.13;0.70;;;;;;;;;;5039843;28;20037;-55
2021/11/29 12:45:11;;;;;;;1.58;0.60;;;;;;;;;;5037181;28;20056;-52
2021/11/29 12:47:57;;;;;;;3.30;0.80;;;;;;;;;;5040974;28;20082;-55
2021/11/29 12:50:30;;;;;;;4.80;1.00;;;;;;;;;;5003966;28;20069;-53
2021/11/29 12:53:07;;;;;;;2.70;1.15;;;;;;;;;;5022920;28;20042;-52
2021/11/29 12:55:34;;;;;;;1.90;0.98;;;;;;;;;;5017504;28;20030;-54
2021/11/29 12:58:18;;;;;;;2.75;1.05;;;;;;;;;;5027827;28;20074;-52
2021/11/29 13:00:45;;;;;;;3.28;1.25;;;;;;;;;;5037932;28;20037;-55
2021/11/29 13:03:12;;;;;;;1.85;0.80;;;;;;;;;;5042041;28;20043;-52
2021/11/29 13:05:41;;;;;;;2.97;1.13;;;;;;;;;;5038702;28;20155;-54
2021/11/29 13:08:08;;;;;;;;;;;;;;;;;;5041380;28;20053;-52
2021/11/29 13:10:48;;;;;;;1.60;0.70;;;;;;;;;;5039685;28;19929;-55
2021/11/29 13:13:29;;;;;;;2.80;1.20;;;;;;;;;;5024310;28;20042;-52
2021/11/29 13:15:58;;;;;;;5.88;1.30;;;;;;;;;;5019965;28;20073;-52
2021/11/29 13:18:27;;;;;;;;;;;;;;;;;;5021119;28;20381;-52
2021/11/29 13:20:56;;;;;;;;;;;;;;;;;;5037456;28;19918;-53
2021/11/29 13:23:24;;;;;;;4.47;1.33;;;;;;;;;;5035372;28;19921;-57
2021/11/29 13:25:51;;;;;;;6.28;1.15;;;;;;;;;;5040963;28;20057;-55
2021/11/29 13:28:18;;;;;;;1.27;0.70;;;;;;;;;;5023590;28;20054;-58
2021/11/29 13:30:44;;;;;;;2.65;1.20;;;;;;;;;;5035326;28;20037;-56
2021/11/29 13:33:11;;;;;;;3.47;1.02;;;;;;;;;;5028243;28;20034;-57
2021/11/29 13:35:38;;;;;;;4.07;1.15;;;;;;;;;;5024311;28;20052;-57
2021/11/29 13:38:06;;;;;;;1.98;0.80;;;;;;;;;;5028019;28;20037;-56
2021/11/29 13:40:34;;;;;;;1.75;0.77;;;;;;;;;;5040406;28;20045;-56
2021/11/29 13:43:03;;;;;;;3.83;0.95;;;;;;;;;;5026712;28;20034;-54
2021/11/29 13:45:30;;;;;;;3.05;0.93;;;;;;;;;;5021136;28;20049;-53
2021/11/29 13:48:03;;;;;;;1.30;0.68;;;;;;;;;;5016724;28;20042;-52
2021/11/29 13:50:31;;;;;;;1.15;0.70;;;;;;;;;;5020364;28;20042;-51
2021/11/29 13:52:59;;;;;;;8.75;1.20;;;;;;;;;;5017006;28;20101;-51
2021/11/29 13:55:26;;;;;;;2.17;0.88;;;;;;;;;;5012562;28;20037;-56
2021/11/29 13:57:55;;;;;;;2.58;1.00;;;;;;;;;;5021159;28;20029;-55
2021/11/29 14:00:27;;;;;;;2.25;0.90;;;;;;;;;;5039320;28;20056;-54
2021/11/29 14:03:01;;;;;;;2.38;0.70;;;;;;;;;;5036565;28;20477;-55
2021/11/29 14:05:28;;;;;;;3.03;1.02;;;;;;;;;;5024590;28;20551;-57
2021/11/29 14:07:56;;;;;;;4.82;0.90;;;;;;;;;;5018511;28;20030;-56
2021/11/29 14:10:32;;;;;;;2.65;0.82;;;;;;;;;;5039839;28;20052;-55
2021/11/29 14:13:00;;;;;;;6.95;0.88;;;;;;;;;;5026286;28;20057;-50
2021/11/29 14:15:32;;;;;;;4.47;0.80;;;;;;;;;;5017281;28;20033;-52
2021/11/29 14:17:58;;;;;;;3.90;1.00;;;;;;;;;;5022920;28;20290;-55
2021/11/29 14:20:26;;;;;;;3.08;1.13;;;;;;;;;;5018228;28;20033;-54
2021/11/29 14:22:54;;;;;;;3.40;0.75;;;;;;;;;;5018882;28;20042;-54
2021/11/29 14:25:20;;;;;;;2.70;0.90;;;;;;;;;;5017759;28;20099;-56
2021/11/29 14:27:54;;;;;;;1.92;0.90;;;;;;;;;;5022592;28;20049;-51
2021/11/29 14:30:26;;;;;;;2.05;0.85;;;;;;;;;;5029537;28;20509;-57
2021/11/29 14:32:52;;;;;;;7.05;2.38;;;;;;;;;;5036212;28;20029;-55
2021/11/29 14:35:28;;;;;;;7.85;2.70;;;;;;;;;;5017433;28;20042;-52
2021/11/29 14:37:58;;;;;;;6.10;2.35;;;;;;;;;;5019188;28;20042;-53
2021/11/29 14:40:24;;;;;;;6.32;2.30;;;;;;;;;;5016854;28;20045;-53
2021/11/29 14:42:52;;;;;;;5.15;1.60;;;;;;;;;;5021300;28;20045;-54
2021/11/29 14:45:21;;;;;;;6.72;1.23;;;;;;;;;;5017076;28;20492;-50
2021/11/29 14:47:51;;;;;;;10.70;1.55;;;;;;;;;;5020662;28;20088;-56
2021/11/29 14:50:20;;;;;;;4.65;1.17;;;;;;;;;;5022548;28;20045;-54